Dades meteomassalio
Diari Summary for Gener 21, 2017 Units:  English    Metric   Both
« Previous Day
Next Day »
Diari Semanal Mensual Anual Personalitzat
  Maxima: Minima: Mijana:
Temperatura: TemperatureC °F 2.9 °F 5.4 °F
Rosada: DewpointC °F 1.7 °F 3.6 °F
Humitat: Humidity % 72 % 88 %
Velocitat del vent: WindSpeedKMH mph 0.0 mph 2.3 mph
Racha vent: WindSpeedGustKMH mph - -
Vent:- - WNW
Pressio: PressurehPa in 1018.8 in -
Pluja: 0.0 in    
Historical Graphs
 
 
Tabular Data for Gener 21, 2017
Time Temperature Dew Point Pressure Wind Wind Speed Wind Gust Humidity Rainfall Rate (Hourly) solar Conditions
TemperatureC °F DewpointC °F PressurehPa in Calm     Humidity % HourlyPrecipMM in SolarRadiationWatts/m^2 W/m2 Conditions
00:02 5.0 °F 4.1 °F 1022.2 in Calm     94 % 0.0 in 0.0 W/m2 RA
00:07 5.1 °F 4.2 °F 1022.2 in Calm     94 % 0.0 in 0.0 W/m2 CLR
00:12 5.0 °F 4.1 °F 1022.2 in Calm     94 % 0.0 in 0.0 W/m2 CLR
00:17 5.0 °F 4.1 °F 1022.2 in Calm     94 % 0.0 in 0.0 W/m2 CLR
00:22 5.0 °F 4.1 °F 1021.9 in Calm     94 % 0.0 in 0.0 W/m2 CLR
00:27 4.9 °F 4.1 °F 1021.9 in Calm     94 % 0.0 in 0.0 W/m2 CLR
00:32 4.9 °F 4.0 °F 1021.9 in Calm     94 % 0.0 in 0.0 W/m2 CLR
00:37 4.9 °F 4.0 °F 1021.9 in Calm     94 % 0.0 in 0.0 W/m2 CLR
00:42 4.9 °F 4.0 °F 1021.9 in Calm     94 % 0.0 in 0.0 W/m2 CLR
00:47 4.9 °F 4.0 °F 1021.9 in Calm     94 % 0.0 in 0.0 W/m2 CLR
00:52 4.9 °F 4.0 °F 1021.9 in Calm     94 % 0.0 in 0.0 W/m2 CLR
00:57 4.8 °F 3.9 °F 1021.9 in Calm     94 % 0.0 in 0.0 W/m2 CLR
01:02 4.8 °F 3.9 °F 1021.9 in Calm     94 % 0.0 in 0.0 W/m2 CLR
01:07 4.8 °F 3.9 °F 1021.9 in Calm     94 % 0.0 in 0.0 W/m2 CLR
01:12 4.8 °F 3.9 °F 1021.9 in Calm     94 % 0.0 in 0.0 W/m2 CLR
01:17 4.8 °F 3.9 °F 1021.9 in Calm     94 % 0.0 in 0.0 W/m2 CLR
01:22 4.8 °F 3.9 °F 1021.9 in Calm     94 % 0.0 in 0.0 W/m2 CLR
01:27 4.8 °F 3.9 °F 1021.9 in Calm     94 % 0.0 in 0.0 W/m2 CLR
01:33 4.7 °F 3.8 °F 1021.9 in Calm     94 % 0.0 in 0.0 W/m2 CLR
01:38 4.7 °F 3.8 °F 1021.9 in Calm     94 % 0.0 in 0.0 W/m2 CLR
01:43 4.7 °F 3.8 °F 1021.9 in Calm     94 % 0.0 in 0.0 W/m2 CLR
01:48 4.6 °F 3.7 °F 1021.6 in Calm     94 % 0.0 in 0.0 W/m2 CLR
01:53 4.6 °F 3.7 °F 1021.9 in Calm     94 % 0.0 in 0.0 W/m2 CLR
01:58 4.6 °F 3.7 °F 1021.6 in Calm     94 % 0.0 in 0.0 W/m2 CLR
02:03 4.6 °F 3.7 °F 1021.6 in Calm     94 % 0.0 in 0.0 W/m2 CLR
02:08 4.6 °F 3.7 °F 1021.6 in Calm     94 % 0.0 in 0.0 W/m2 CLR
02:13 4.6 °F 3.7 °F 1021.6 in Calm     94 % 0.0 in 0.0 W/m2 CLR
02:18 4.6 °F 3.7 °F 1021.6 in Calm     94 % 0.0 in 0.0 W/m2 CLR
02:23 4.6 °F 3.7 °F 1021.6 in Calm     94 % 0.0 in 0.0 W/m2 CLR
02:28 4.6 °F 3.7 °F 1021.6 in Calm     94 % 0.0 in 0.0 W/m2 CLR
02:33 4.6 °F 3.7 °F 1021.6 in Calm     94 % 0.0 in 0.0 W/m2 CLR
02:38 4.6 °F 3.7 °F 1021.6 in Calm     94 % 0.0 in 0.0 W/m2 CLR
02:43 4.6 °F 3.7 °F 1021.6 in Calm     94 % 0.0 in 0.0 W/m2 CLR
02:48 4.6 °F 3.7 °F 1021.6 in Calm     94 % 0.0 in 0.0 W/m2 CLR
02:53 4.6 °F 3.7 °F 1021.6 in Calm     94 % 0.0 in 0.0 W/m2 CLR
02:58 4.6 °F 3.7 °F 1021.6 in Calm     94 % 0.0 in 0.0 W/m2 CLR
03:03 4.6 °F 3.7 °F 1021.6 in Calm     94 % 0.0 in 0.0 W/m2 CLR
03:08 4.6 °F 3.7 °F 1021.6 in Calm     94 % 0.0 in 0.0 W/m2 CLR
03:13 4.6 °F 3.7 °F 1021.6 in Calm     94 % 0.0 in 0.0 W/m2 CLR
03:18 4.7 °F 3.8 °F 1021.6 in Calm     94 % 0.0 in 0.0 W/m2 CLR
03:23 4.6 °F 3.7 °F 1021.6 in Calm     94 % 0.0 in 0.0 W/m2 CLR
03:28 4.7 °F 3.8 °F 1021.6 in Calm     94 % 0.0 in 0.0 W/m2 CLR
03:33 4.7 °F 3.8 °F 1021.9 in Calm     94 % 0.0 in 0.0 W/m2 CLR
03:38 4.7 °F 3.8 °F 1021.9 in Calm     94 % 0.0 in 0.0 W/m2 CLR
03:43 4.7 °F 3.8 °F 1021.6 in Calm     94 % 0.0 in 0.0 W/m2 CLR
03:48 4.6 °F 3.6 °F 1021.9 in Calm     93 % 0.0 in 0.0 W/m2 CLR
03:53 4.6 °F 3.5 °F 1021.6 in Calm     93 % 0.0 in 0.0 W/m2 CLR
03:58 4.6 °F 3.5 °F 1021.6 in Calm     93 % 0.0 in 0.0 W/m2 CLR
04:03 4.6 °F 3.5 °F 1021.6 in Calm     93 % 0.0 in 0.0 W/m2 CLR
04:08 4.5 °F 3.4 °F 1021.6 in Calm     93 % 0.0 in 0.0 W/m2 CLR
04:13 4.4 °F 3.4 °F 1021.6 in Calm     93 % 0.0 in 0.0 W/m2 CLR
04:18 4.4 °F 3.3 °F 1021.6 in Calm     93 % 0.0 in 0.0 W/m2 CLR
04:23 4.4 °F 3.3 °F 1021.6 in Calm     93 % 0.0 in 0.0 W/m2 CLR
04:28 4.4 °F 3.3 °F 1021.6 in Calm     93 % 0.0 in 0.0 W/m2 CLR
04:33 4.4 °F 3.3 °F 1021.6 in Calm     93 % 0.0 in 0.0 W/m2 CLR
04:38 4.4 °F 3.3 °F 1021.6 in Calm     93 % 0.0 in 0.0 W/m2 CLR
04:43 4.4 °F 3.3 °F 1021.6 in Calm     93 % 0.0 in 0.0 W/m2 CLR
04:48 4.4 °F 3.3 °F 1021.6 in Calm     93 % 0.0 in 0.0 W/m2 CLR
04:53 4.4 °F 3.3 °F 1021.6 in Calm     93 % 0.0 in 0.0 W/m2 CLR
04:58 4.4 °F 3.4 °F 1021.6 in Calm     93 % 0.0 in 0.0 W/m2 CLR
05:03 4.4 °F 3.4 °F 1021.6 in Calm     93 % 0.0 in 0.0 W/m2 CLR
05:08 4.5 °F 3.4 °F 1021.2 in Calm     93 % 0.0 in 0.0 W/m2 CLR
05:13 4.5 °F 3.4 °F 1021.2 in Calm     93 % 0.0 in 0.0 W/m2 CLR
05:18 4.5 °F 3.4 °F 1021.2 in Calm     93 % 0.0 in 0.0 W/m2 CLR
05:23 4.5 °F 3.4 °F 1021.6 in Calm     93 % 0.0 in 0.0 W/m2 CLR
05:28 4.4 °F 3.4 °F 1021.6 in Calm     93 % 0.0 in 0.0 W/m2 CLR
05:33 4.4 °F 3.3 °F 1021.6 in Calm     93 % 0.0 in 0.0 W/m2 CLR
05:38 4.3 °F 3.3 °F 1021.6 in Calm     93 % 0.0 in 0.0 W/m2 CLR
05:43 4.3 °F 3.2 °F 1021.6 in Calm     93 % 0.0 in 0.0 W/m2 CLR
05:48 4.2 °F 3.2 °F 1021.6 in Calm     93 % 0.0 in 0.0 W/m2 CLR
05:53 4.1 °F 3.1 °F 1021.6 in NW 5.6 mph 5.6 mph 93 % 0.0 in 0.0 W/m2 CLR
05:58 4.1 °F 3.1 °F 1021.6 in Calm   0.2 mph 93 % 0.0 in 0.0 W/m2 CLR
06:03 4.1 °F 3.1 °F 1021.6 in Calm     93 % 0.0 in 0.0 W/m2 CLR
06:08 4.1 °F 3.1 °F 1021.6 in Calm     93 % 0.0 in 0.0 W/m2 CLR
06:13 4.1 °F 3.0 °F 1021.6 in Calm     93 % 0.0 in 0.0 W/m2 CLR
06:18 4.1 °F 3.0 °F 1021.6 in Calm     93 % 0.0 in 0.0 W/m2 CLR
06:23 4.1 °F 3.0 °F 1021.6 in Calm     93 % 0.0 in 0.0 W/m2 CLR
06:28 4.1 °F 3.0 °F 1021.6 in Calm     93 % 0.0 in 0.0 W/m2 CLR
06:33 4.0 °F 2.8 °F 1021.6 in Calm     92 % 0.0 in 0.0 W/m2 CLR
06:38 3.9 °F 2.8 °F 1021.6 in Calm     92 % 0.0 in 0.0 W/m2 CLR
06:43 3.8 °F 2.7 °F 1021.6 in Calm     92 % 0.0 in 0.0 W/m2 CLR
06:48 3.7 °F 2.6 °F 1021.6 in Calm     92 % 0.0 in 0.0 W/m2 CLR
06:54 3.6 °F 2.4 °F 1021.6 in Calm     92 % 0.0 in 0.0 W/m2 CLR
06:59 3.5 °F 2.3 °F 1021.9 in NW 5.6 mph 5.6 mph 92 % 0.0 in 0.0 W/m2 CLR
07:04 3.4 °F 2.3 °F 1021.6 in NW 11.3 mph 11.3 mph 92 % 0.0 in 0.0 W/m2 CLR
07:09 3.3 °F 2.2 °F 1021.6 in WNW 5.6 mph 5.6 mph 92 % 0.0 in 0.0 W/m2 CLR
07:14 3.3 °F 2.1 °F 1021.6 in Calm     92 % 0.0 in 0.0 W/m2 CLR
07:19 3.2 °F 2.1 °F 1021.6 in Calm     92 % 0.0 in 0.0 W/m2 CLR
07:24 3.2 °F 2.0 °F 1021.6 in WNW 7.4 mph   92 % 0.0 in 0.0 W/m2 CLR
07:29 3.1 °F 1.9 °F 1021.9 in WNW 11.1 mph 11.1 mph 92 % 0.0 in 0.0 W/m2 CLR
07:34 2.9 °F 1.8 °F 1021.9 in WNW 7.4 mph 7.4 mph 92 % 0.0 in 0.0 W/m2 CLR
07:39 2.9 °F 1.7 °F 1021.9 in Calm     92 % 0.0 in 0.0 W/m2 CLR
07:44 2.9 °F 1.9 °F 1021.9 in Calm     93 % 0.0 in 0.0 W/m2 CLR
07:49 2.9 °F 1.9 °F 1021.9 in Calm     93 % 0.0 in 0.0 W/m2 CLR
07:54 2.9 °F 1.9 °F 1021.9 in Calm     93 % 0.0 in 0.0 W/m2 CLR
07:59 2.9 °F 1.9 °F 1021.9 in Calm     93 % 0.0 in 0.0 W/m2 CLR
08:04 2.9 °F 1.9 °F 1021.9 in Calm     93 % 0.0 in 0.0 W/m2 CLR
08:09 2.9 °F 1.9 °F 1021.9 in Calm     93 % 0.0 in 0.0 W/m2 CLR
08:14 2.9 °F 1.9 °F 1021.9 in Calm     93 % 0.0 in 0.0 W/m2 CLR
08:19 2.9 °F 1.9 °F 1021.9 in Calm     93 % 0.0 in 0.0 W/m2 OVC
08:24 3.0 °F 2.0 °F 1021.9 in Calm     93 % 0.0 in 0.0 W/m2 OVC
08:29 3.0 °F 2.0 °F 1021.9 in Calm     93 % 0.0 in 0.0 W/m2 OVC
08:34 3.1 °F 2.1 °F 1021.9 in Calm     93 % 0.0 in 9.0 W/m2 OVC
08:39 3.1 °F 2.1 °F 1021.9 in Calm     93 % 0.0 in 12.0 W/m2 BKN
08:44 3.1 °F 2.1 °F 1021.9 in Calm     93 % 0.0 in 14.0 W/m2 BKN
08:49 3.2 °F 2.2 °F 1021.9 in Calm     93 % 0.0 in 21.0 W/m2 BKN
08:54 3.2 °F 2.2 °F 1021.9 in Calm     93 % 0.0 in 26.0 W/m2 BKN
08:59 3.2 °F 2.2 °F 1021.9 in Calm     93 % 0.0 in 28.0 W/m2 BKN
09:04 3.2 °F 2.2 °F 1021.9 in Calm     93 % 0.0 in 37.0 W/m2 BKN
09:09 3.2 °F 2.2 °F 1021.9 in Calm     93 % 0.0 in 42.0 W/m2 BKN
09:14 3.2 °F 2.2 °F 1021.9 in Calm     93 % 0.0 in 60.0 W/m2 BKN
09:19 3.2 °F 2.2 °F 1021.9 in Calm     93 % 0.0 in 62.0 W/m2 BKN
09:24 3.2 °F 2.2 °F 1021.9 in Calm     93 % 0.0 in 74.0 W/m2 BKN
09:29 3.3 °F 2.4 °F 1021.9 in Calm     94 % 0.0 in 125.0 W/m2 BKN
09:34 3.4 °F 2.4 °F 1021.9 in Calm     93 % 0.0 in 134.0 W/m2 BKN
09:35 3.5 °F 2.5 °F 1021.9 in Calm     93 % 0.0 in 144.0 W/m2 BKN
09:40 3.7 °F 2.8 °F 1021.9 in Calm     94 % 0.0 in 137.0 W/m2 BKN
09:45 3.8 °F 2.7 °F 1021.6 in Calm     93 % 0.0 in 158.0 W/m2 BKN
09:50 3.9 °F 2.8 °F 1021.6 in Calm     93 % 0.0 in 183.0 W/m2 BKN
09:55 4.1 °F 3.1 °F 1021.9 in Calm     93 % 0.0 in 127.0 W/m2 BKN
10:00 4.2 °F 3.2 °F 1021.9 in Calm     93 % 0.0 in 174.0 W/m2 BKN
10:05 4.4 °F 3.3 °F 1022.2 in Calm     93 % 0.0 in 188.0 W/m2 BKN
10:10 4.6 °F 3.5 °F 1022.2 in Calm     93 % 0.0 in 127.0 W/m2 BKN
10:15 4.5 °F 3.4 °F 1022.2 in Calm     93 % 0.0 in 130.0 W/m2 BKN
10:20 4.6 °F 3.4 °F 1022.2 in Calm     92 % 0.0 in 167.0 W/m2 BKN
10:25 4.6 °F 3.4 °F 1022.2 in Calm     92 % 0.0 in 146.0 W/m2 BKN
10:30 4.8 °F 3.6 °F 1022.2 in Calm     92 % 0.0 in 153.0 W/m2 BKN
10:35 4.9 °F 3.7 °F 1022.2 in Calm     92 % 0.0 in 171.0 W/m2 BKN
10:40 4.9 °F 3.8 °F 1022.2 in Calm     92 % 0.0 in 178.0 W/m2 BKN
10:45 5.1 °F 3.9 °F 1022.2 in Calm     92 % 0.0 in 183.0 W/m2 BKN
10:50 5.2 °F 4.1 °F 1022.2 in Calm     92 % 0.0 in 176.0 W/m2 BKN
10:55 5.3 °F 4.1 °F 1022.2 in Calm     92 % 0.0 in 155.0 W/m2 BKN
11:00 5.4 °F 4.2 °F 1022.2 in Calm     92 % 0.0 in 153.0 W/m2 BKN
11:05 5.3 °F 4.0 °F 1022.2 in NNE 9.7 mph 9.7 mph 91 % 0.0 in 185.0 W/m2 BKN
11:10 5.4 °F 3.9 °F 1022.6 in North 9.7 mph 9.7 mph 90 % 0.0 in 156.0 W/m2 BKN
11:15 5.4 °F 3.6 °F 1022.6 in North 9.3 mph 9.3 mph 88 % 0.0 in 146.0 W/m2 BKN
11:20 5.4 °F 3.4 °F 1022.2 in North 9.3 mph 9.3 mph 87 % 0.0 in 197.0 W/m2 BKN
11:25 5.5 °F 3.7 °F 1022.6 in NNW 7.4 mph 7.4 mph 88 % 0.0 in 192.0 W/m2 BKN
11:30 5.6 °F 3.7 °F 1022.2 in NW 5.6 mph 5.6 mph 88 % 0.0 in 211.0 W/m2 BKN
11:35 5.6 °F 3.7 °F 1022.2 in NW 1.9 mph   88 % 0.0 in 248.0 W/m2 BKN
11:40 5.6 °F 3.6 °F 1022.2 in Calm     87 % 0.0 in 262.0 W/m2 BKN
11:45 5.7 °F 3.7 °F 1021.9 in Calm     87 % 0.0 in 206.0 W/m2 BKN
11:50 5.9 °F 4.1 °F 1021.9 in Calm     88 % 0.0 in 313.0 W/m2 BKN
11:55 6.2 °F 4.2 °F 1021.9 in Calm     87 % 0.0 in 204.0 W/m2 SCT
12:00 6.4 °F 3.7 °F 1021.9 in Calm     83 % 0.0 in 302.0 W/m2 SCT
12:05 6.6 °F 3.8 °F 1021.6 in Calm     82 % 0.0 in 327.0 W/m2 SCT
12:10 6.8 °F 4.0 °F 1021.6 in Calm     82 % 0.0 in 309.0 W/m2 SCT
12:15 7.1 °F 4.2 °F 1021.6 in Calm     82 % 0.0 in 322.0 W/m2 SCT
12:20 7.2 °F 4.0 °F 1021.6 in Calm     80 % 0.0 in 323.0 W/m2 SCT
12:25 7.2 °F 3.9 °F 1021.2 in Calm     80 % 0.0 in 281.0 W/m2 SCT
12:30 7.2 °F 4.3 °F 1021.2 in Calm     82 % 0.0 in 315.0 W/m2 SCT
12:35 7.2 °F 4.3 °F 1021.2 in Calm     82 % 0.0 in 214.0 W/m2 SCT
12:40 7.0 °F 3.9 °F 1021.2 in Calm     81 % 0.0 in 211.0 W/m2 BKN
12:45 6.9 °F 3.7 °F 1020.9 in Calm     80 % 0.0 in 200.0 W/m2 BKN
12:50 6.9 °F 3.9 °F 1020.9 in Calm     81 % 0.0 in 199.0 W/m2 BKN
12:55 7.0 °F 4.1 °F 1020.9 in Calm     82 % 0.0 in 213.0 W/m2 BKN
13:00 7.0 °F 3.9 °F 1020.5 in NNW 16.7 mph 16.7 mph 81 % 0.0 in 195.0 W/m2 BKN
13:05 7.1 °F 4.0 °F 1020.5 in NNW 16.7 mph 16.7 mph 81 % 0.0 in 223.0 W/m2 BKN
13:10 7.1 °F 4.0 °F 1020.5 in NNW 9.3 mph 9.7 mph 81 % 0.0 in 230.0 W/m2 BKN
13:15 7.1 °F 4.2 °F 1020.2 in NW 9.7 mph 9.7 mph 82 % 0.0 in 165.0 W/m2 BKN
13:20 7.1 °F 4.4 °F 1020.2 in NW 9.7 mph 9.7 mph 83 % 0.0 in 142.0 W/m2 BKN
13:25 7.1 °F 4.4 °F 1020.2 in NW 9.3 mph 9.3 mph 83 % 0.0 in 151.0 W/m2 BKN
13:31 7.1 °F 4.4 °F 1020.2 in NW 5.6 mph   83 % 0.0 in 174.0 W/m2 BKN
13:36 7.1 °F 4.4 °F 1020.2 in NW 9.3 mph   83 % 0.0 in 167.0 W/m2 BKN
13:41 7.1 °F 4.2 °F 1020.2 in NW 14.8 mph 14.8 mph 82 % 0.0 in 135.0 W/m2 BKN
13:46 7.1 °F 4.2 °F 1020.2 in Calm     82 % 0.0 in 81.0 W/m2 BKN
13:51 7.2 °F 4.4 °F 1020.2 in Calm     83 % 0.0 in 62.0 W/m2 BKN
13:56 7.2 °F 4.4 °F 1019.9 in NW 14.5 mph 14.5 mph 83 % 0.0 in 54.0 W/m2 BKN
14:01 7.1 °F 4.4 °F 1019.9 in NW 14.8 mph 14.8 mph 83 % 0.0 in 90.0 W/m2 BKN
14:06 7.1 °F 4.4 °F 1019.9 in NW 14.8 mph 14.8 mph 83 % 0.0 in 76.0 W/m2 BKN
14:11 7.0 °F 4.3 °F 1019.9 in Calm     83 % 0.0 in 54.0 W/m2 BKN
14:16 7.0 °F 4.3 °F 1019.9 in Calm     83 % 0.0 in 58.0 W/m2 BKN
14:21 7.0 °F 4.1 °F 1019.9 in WNW 14.8 mph 14.8 mph 82 % 0.0 in 83.0 W/m2 BKN
14:26 6.9 °F 4.1 °F 1019.5 in WNW 9.3 mph 9.3 mph 82 % 0.0 in 67.0 W/m2 BKN
14:31 7.0 °F 4.1 °F 1019.5 in Calm     82 % 0.0 in 49.0 W/m2 BKN
14:36 6.9 °F 3.8 °F 1019.5 in NW 16.7 mph 16.7 mph 81 % 0.0 in 46.0 W/m2 BKN
14:41 6.9 °F 3.8 °F 1019.5 in NW 16.7 mph 16.7 mph 81 % 0.0 in 63.0 W/m2 BKN
14:46 6.9 °F 3.8 °F 1019.2 in NW 1.9 mph   81 % 0.0 in 83.0 W/m2 BKN
14:51 6.9 °F 3.8 °F 1019.2 in WNW 11.1 mph 11.1 mph 81 % 0.0 in 74.0 W/m2 BKN
14:56 6.9 °F 3.8 °F 1019.2 in NW 13.0 mph 13.0 mph 81 % 0.0 in 62.0 W/m2 BKN
15:01 6.9 °F 3.8 °F 1019.5 in NW 9.3 mph 9.3 mph 81 % 0.0 in 49.0 W/m2 BKN
15:06 6.9 °F 3.8 °F 1019.5 in Calm     81 % 0.0 in 47.0 W/m2 BKN
15:11 6.9 °F 3.8 °F 1019.5 in NNW 1.9 mph   81 % 0.0 in 46.0 W/m2 BKN
15:16 6.8 °F 4.0 °F 1019.5 in WNW 16.1 mph 16.1 mph 82 % 0.0 in 32.0 W/m2 BKN
15:21 6.7 °F 4.0 °F 1019.5 in WNW 11.3 mph 11.3 mph 83 % 0.0 in 26.0 W/m2 BKN
15:26 6.6 °F 3.9 °F 1019.5 in WNW 7.4 mph 7.4 mph 83 % 0.0 in 30.0 W/m2 BKN
15:31 6.6 °F 3.9 °F 1019.5 in NW 7.4 mph 7.4 mph 83 % 0.0 in 33.0 W/m2 BKN
15:36 6.6 °F 3.9 °F 1019.5 in Calm     83 % 0.0 in 40.0 W/m2 BKN
15:41 6.6 °F 4.1 °F 1019.2 in NW 11.1 mph 11.1 mph 84 % 0.0 in 33.0 W/m2 BKN
15:46 6.6 °F 4.1 °F 1019.2 in NW 9.3 mph 9.3 mph 84 % 0.0 in 25.0 W/m2 BKN
15:51 6.6 °F 4.1 °F 1019.2 in WNW 11.3 mph 11.3 mph 84 % 0.0 in 23.0 W/m2 BKN
16:01 6.6 °F 4.1 °F 1019.2 in WNW 9.3 mph 9.3 mph 84 % 0.0 in 16.0 W/m2 BKN
16:06 6.6 °F 4.1 °F 1019.2 in WNW 7.4 mph 7.4 mph 84 % 0.0 in 18.0 W/m2 BKN
16:11 6.7 °F 4.2 °F 1019.2 in WNW 9.3 mph 9.3 mph 84 % 0.0 in 19.0 W/m2 BKN
16:16 6.8 °F 4.1 °F 1019.2 in WNW 7.4 mph 7.4 mph 83 % 0.0 in 21.0 W/m2 BKN
16:21 6.8 °F 4.2 °F 1018.8 in WNW 13.0 mph 13.0 mph 83 % 0.0 in 19.0 W/m2 BKN
16:26 6.9 °F 4.2 °F 1018.8 in WNW 16.7 mph 16.7 mph 83 % 0.0 in 12.0 W/m2 BKN
16:31 6.9 °F 4.3 °F 1018.8 in NW 20.4 mph 20.4 mph 83 % 0.0 in 16.0 W/m2 BKN
16:36 7.0 °F 4.1 °F 1018.8 in NW 18.5 mph 18.5 mph 82 % 0.0 in 16.0 W/m2 BKN
16:41 7.2 °F 3.9 °F 1019.2 in NW 13.0 mph 13.0 mph 80 % 0.0 in 18.0 W/m2 BKN
16:46 7.2 °F 4.0 °F 1019.2 in NW 13.0 mph 13.0 mph 80 % 0.0 in 21.0 W/m2 FEW
16:51 7.2 °F 4.0 °F 1019.2 in Calm     80 % 0.0 in 25.0 W/m2 SCT
16:56 7.2 °F 4.2 °F 1019.2 in Calm     81 % 0.0 in 14.0 W/m2 BKN
17:01 7.2 °F 4.1 °F 1019.2 in Calm     81 % 0.0 in 12.0 W/m2 OVC
17:06 7.2 °F 4.1 °F 1019.2 in Calm     81 % 0.0 in 14.0 W/m2 OVC
17:11 7.1 °F 4.2 °F 1019.2 in Calm     82 % 0.0 in 19.0 W/m2 OVC
17:16 7.1 °F 4.2 °F 1019.2 in Calm     82 % 0.0 in 16.0 W/m2 OVC
17:21 7.1 °F 4.1 °F 1019.2 in Calm     81 % 0.0 in 12.0 W/m2 OVC
17:26 7.1 °F 4.1 °F 1019.2 in Calm     81 % 0.0 in 11.0 W/m2 OVC
17:31 7.2 °F 4.1 °F 1019.2 in Calm     81 % 0.0 in 5.0 W/m2 OVC
17:36 7.2 °F 4.1 °F 1019.5 in Calm     81 % 0.0 in 5.0 W/m2 OVC
17:41 7.2 °F 3.9 °F 1019.5 in Calm     80 % 0.0 in 0.0 W/m2 OVC
17:46 7.2 °F 3.9 °F 1019.5 in Calm     80 % 0.0 in 0.0 W/m2 OVC
17:51 7.2 °F 4.1 °F 1019.5 in Calm     81 % 0.0 in 0.0 W/m2 OVC
17:56 7.1 °F 4.1 °F 1019.5 in Calm     81 % 0.0 in 0.0 W/m2 OVC
18:01 7.1 °F 4.0 °F 1019.5 in Calm     81 % 0.0 in 0.0 W/m2 OVC
18:06 7.1 °F 4.1 °F 1019.5 in Calm     81 % 0.0 in 0.0 W/m2 CLR
18:11 7.0 °F 3.9 °F 1019.5 in Calm     81 % 0.0 in 0.0 W/m2 CLR
18:16 7.0 °F 3.9 °F 1019.5 in Calm     81 % 0.0 in 0.0 W/m2 CLR
18:21 6.9 °F 4.1 °F 1019.2 in Calm     82 % 0.0 in 0.0 W/m2 CLR
18:26 6.9 °F 4.0 °F 1019.5 in Calm     82 % 0.0 in 0.0 W/m2 CLR
18:31 6.8 °F 3.8 °F 1019.5 in Calm     81 % 0.0 in 0.0 W/m2 CLR
18:37 6.8 °F 4.0 °F 1019.5 in Calm     82 % 0.0 in 0.0 W/m2 CLR
18:42 6.8 °F 4.2 °F 1019.5 in Calm     83 % 0.0 in 0.0 W/m2 CLR
18:47 6.7 °F 3.9 °F 1019.5 in Calm     82 % 0.0 in 0.0 W/m2 CLR
18:52 6.7 °F 3.9 °F 1019.5 in Calm     82 % 0.0 in 0.0 W/m2 CLR
18:57 6.7 °F 4.1 °F 1019.5 in Calm     83 % 0.0 in 0.0 W/m2 CLR
19:02 6.7 °F 4.2 °F 1019.9 in Calm     84 % 0.0 in 0.0 W/m2 CLR
19:07 6.6 °F 4.1 °F 1019.9 in Calm     84 % 0.0 in 0.0 W/m2 CLR
19:12 6.4 °F 4.1 °F 1019.9 in Calm     85 % 0.0 in 0.0 W/m2 CLR
19:17 6.4 °F 4.1 °F 1019.9 in Calm     85 % 0.0 in 0.0 W/m2 CLR
19:22 6.4 °F 4.2 °F 1019.9 in Calm     86 % 0.0 in 0.0 W/m2 CLR
19:27 6.2 °F 4.1 °F 1019.9 in Calm     86 % 0.0 in 0.0 W/m2 CLR
19:32 6.2 °F 4.1 °F 1019.9 in Calm     86 % 0.0 in 0.0 W/m2 CLR
19:37 6.2 °F 4.2 °F 1019.9 in Calm     87 % 0.0 in 0.0 W/m2 CLR
19:42 6.2 °F 4.2 °F 1019.9 in Calm     87 % 0.0 in 0.0 W/m2 CLR
19:47 6.1 °F 4.1 °F 1019.9 in Calm     87 % 0.0 in 0.0 W/m2 CLR
19:52 6.1 °F 4.2 °F 1019.9 in Calm     88 % 0.0 in 0.0 W/m2 CLR
19:57 5.9 °F 4.1 °F 1019.9 in Calm     88 % 0.0 in 0.0 W/m2 CLR
20:02 5.8 °F 4.2 °F 1019.9 in Calm     89 % 0.0 in 0.0 W/m2 CLR
20:07 5.8 °F 4.1 °F 1019.9 in Calm     89 % 0.0 in 0.0 W/m2 CLR
20:12 5.8 °F 4.1 °F 1019.9 in Calm     89 % 0.0 in 0.0 W/m2 CLR
20:17 5.8 °F 4.1 °F 1019.5 in Calm     89 % 0.0 in 0.0 W/m2 CLR
20:22 5.8 °F 3.9 °F 1019.5 in Calm     88 % 0.0 in 0.0 W/m2 CLR
20:27 5.8 °F 3.9 °F 1019.9 in Calm     88 % 0.0 in 0.0 W/m2 CLR
20:32 5.7 °F 3.8 °F 1019.5 in Calm     88 % 0.0 in 0.0 W/m2 CLR
20:37 5.6 °F 3.9 °F 1019.5 in Calm     89 % 0.0 in 0.0 W/m2 CLR
20:42 5.6 °F 3.8 °F 1019.9 in Calm     88 % 0.0 in 0.0 W/m2 CLR
20:47 5.6 °F 3.8 °F 1019.9 in Calm     88 % 0.0 in 0.0 W/m2 CLR
20:52 5.6 °F 3.9 °F 1019.9 in Calm     89 % 0.0 in 0.0 W/m2 CLR
20:57 5.5 °F 3.8 °F 1019.9 in Calm     89 % 0.0 in 0.0 W/m2 CLR
21:02 5.4 °F 3.8 °F 1019.5 in Calm     89 % 0.0 in 0.0 W/m2 CLR
21:07 5.4 °F 3.7 °F 1019.5 in Calm     89 % 0.0 in 0.0 W/m2 CLR
21:12 5.3 °F 3.7 °F 1019.5 in Calm     89 % 0.0 in 0.0 W/m2 CLR
21:17 5.4 °F 3.7 °F 1019.5 in Calm     89 % 0.0 in 0.0 W/m2 CLR
21:22 5.3 °F 3.7 °F 1019.2 in Calm     89 % 0.0 in 0.0 W/m2 CLR
21:27 5.2 °F 3.5 °F 1019.5 in Calm     89 % 0.0 in 0.0 W/m2 CLR
21:32 5.1 °F 3.4 °F 1019.9 in Calm     89 % 0.0 in 0.0 W/m2 CLR
21:37 5.1 °F 3.6 °F 1019.9 in Calm     90 % 0.0 in 0.0 W/m2 CLR
21:42 5.1 °F 3.6 °F 1019.5 in Calm     90 % 0.0 in 0.0 W/m2 CLR
21:47 5.1 °F 3.6 °F 1019.5 in Calm     90 % 0.0 in 0.0 W/m2 CLR
21:52 5.1 °F 3.6 °F 1019.5 in Calm     90 % 0.0 in 0.0 W/m2 CLR
21:57 5.1 °F 3.6 °F 1019.9 in Calm     90 % 0.0 in 0.0 W/m2 CLR
22:02 5.1 °F 3.6 °F 1019.9 in Calm     90 % 0.0 in 0.0 W/m2 CLR
22:07 5.1 °F 3.6 °F 1019.9 in Calm     90 % 0.0 in 0.0 W/m2 CLR
22:12 5.1 °F 3.6 °F 1019.5 in Calm     90 % 0.0 in 0.0 W/m2 CLR
22:17 5.1 °F 3.6 °F 1019.5 in Calm     90 % 0.0 in 0.0 W/m2 CLR
22:22 5.3 °F 3.8 °F 1019.9 in Calm     90 % 0.0 in 0.0 W/m2 CLR
22:27 5.4 °F 3.7 °F 1019.9 in NW 14.8 mph 14.8 mph 89 % 0.0 in 0.0 W/m2 CLR
22:32 5.7 °F 3.9 °F 1019.9 in WNW 5.6 mph   88 % 0.0 in 0.0 W/m2 CLR
22:37 5.7 °F 3.7 °F 1019.5 in Calm     87 % 0.0 in 0.0 W/m2 CLR
22:42 6.0 °F 3.8 °F 1019.5 in NW 11.1 mph 11.1 mph 86 % 0.0 in 0.0 W/m2 CLR
22:47 6.6 °F 3.9 °F 1019.2 in NW 14.8 mph 14.8 mph 83 % 0.0 in 0.0 W/m2 CLR
22:52 7.1 °F 3.8 °F 1019.5 in NW 14.8 mph 14.8 mph 80 % 0.0 in 0.0 W/m2 CLR
22:57 7.4 °F 3.7 °F 1019.5 in NNW 20.4 mph 20.4 mph 77 % 0.0 in 0.0 W/m2 CLR
23:02 7.8 °F 3.4 °F 1019.5 in NNW 11.1 mph 11.1 mph 74 % 0.0 in 0.0 W/m2 CLR
23:07 7.9 °F 3.2 °F 1019.5 in NNW 18.5 mph 18.5 mph 72 % 0.0 in 0.0 W/m2 CLR
23:12 8.0 °F 3.4 °F 1019.5 in NNW 11.1 mph 11.1 mph 73 % 0.0 in 0.0 W/m2 CLR
23:17 7.9 °F 3.2 °F 1019.5 in Calm     72 % 0.0 in 0.0 W/m2 CLR
23:22 7.8 °F 3.3 °F 1019.5 in Calm     73 % 0.0 in 0.0 W/m2 CLR
23:27 7.6 °F 3.4 °F 1019.5 in Calm     75 % 0.0 in 0.0 W/m2 CLR
23:32 7.4 °F 3.4 °F 1019.5 in Calm     76 % 0.0 in 0.0 W/m2 CLR
23:37 7.1 °F 3.3 °F 1019.5 in Calm     77 % 0.0 in 0.0 W/m2 CLR
23:43 7.1 °F 3.3 °F 1019.2 in Calm     77 % 0.0 in 0.0 W/m2 CLR
23:48 6.9 °F 3.4 °F 1019.2 in Calm     78 % 0.0 in 0.0 W/m2 CLR
23:53 6.8 °F 3.4 °F 1019.2 in Calm     79 % 0.0 in 0.0 W/m2 CLR
23:58 6.7 °F 3.5 °F 1019.2 in Calm     80 % 0.0 in 0.0 W/m2 CLR
Lo Temps de Massalio
Compliments of Weather Underground - 1.25 mb